sensor_id;sensor_type;location;lat;lon;timestamp;P1;durP1;ratioP1;P2;durP2;ratioP2
42338;SDS011;27993;45.392;10.918;2022-12-24T00:00:20;80.17;;;37.60;;
42338;SDS011;27993;45.392;10.918;2022-12-24T00:02:50;68.90;;;39.00;;
42338;SDS011;27993;45.392;10.918;2022-12-24T00:05:21;68.80;;;36.57;;
42338;SDS011;27993;45.392;10.918;2022-12-24T00:07:52;75.47;;;38.70;;
42338;SDS011;27993;45.392;10.918;2022-12-24T00:10:22;70.17;;;39.47;;
42338;SDS011;27993;45.392;10.918;2022-12-24T00:12:53;72.07;;;37.47;;
42338;SDS011;27993;45.392;10.918;2022-12-24T00:15:24;71.23;;;37.87;;
42338;SDS011;27993;45.392;10.918;2022-12-24T00:17:54;77.43;;;39.93;;
42338;SDS011;27993;45.392;10.918;2022-12-24T00:20:25;70.80;;;39.77;;
42338;SDS011;27993;45.392;10.918;2022-12-24T00:22:55;75.47;;;39.57;;
42338;SDS011;27993;45.392;10.918;2022-12-24T00:25:26;71.20;;;37.30;;
42338;SDS011;27993;45.392;10.918;2022-12-24T00:27:57;71.20;;;38.77;;
42338;SDS011;27993;45.392;10.918;2022-12-24T00:30:27;66.93;;;35.97;;
42338;SDS011;27993;45.392;10.918;2022-12-24T00:32:58;71.73;;;37.33;;
42338;SDS011;27993;45.392;10.918;2022-12-24T00:35:28;71.97;;;38.33;;
42338;SDS011;27993;45.392;10.918;2022-12-24T00:37:59;75.53;;;39.53;;
42338;SDS011;27993;45.392;10.918;2022-12-24T00:40:30;73.67;;;38.97;;
42338;SDS011;27993;45.392;10.918;2022-12-24T00:43:01;70.93;;;39.53;;
42338;SDS011;27993;45.392;10.918;2022-12-24T00:45:31;69.97;;;39.37;;
42338;SDS011;27993;45.392;10.918;2022-12-24T00:48:02;73.43;;;40.33;;
42338;SDS011;27993;45.392;10.918;2022-12-24T00:50:33;91.67;;;42.40;;
42338;SDS011;27993;45.392;10.918;2022-12-24T00:53:03;73.23;;;38.23;;
42338;SDS011;27993;45.392;10.918;2022-12-24T00:55:34;72.17;;;38.37;;
42338;SDS011;27993;45.392;10.918;2022-12-24T00:58:04;74.77;;;39.50;;
42338;SDS011;27993;45.392;10.918;2022-12-24T01:00:35;67.07;;;36.93;;
42338;SDS011;27993;45.392;10.918;2022-12-24T01:03:06;63.80;;;37.77;;
42338;SDS011;27993;45.392;10.918;2022-12-24T01:05:36;68.03;;;35.57;;
42338;SDS011;27993;45.392;10.918;2022-12-24T01:08:07;78.40;;;37.83;;
42338;SDS011;27993;45.392;10.918;2022-12-24T01:10:37;64.60;;;36.00;;
42338;SDS011;27993;45.392;10.918;2022-12-24T01:13:08;64.47;;;34.20;;
42338;SDS011;27993;45.392;10.918;2022-12-24T01:15:39;53.83;;;33.30;;
42338;SDS011;27993;45.392;10.918;2022-12-24T01:18:09;71.17;;;36.03;;
42338;SDS011;27993;45.392;10.918;2022-12-24T01:20:40;67.50;;;35.40;;
42338;SDS011;27993;45.392;10.918;2022-12-24T01:23:11;57.77;;;33.23;;
42338;SDS011;27993;45.392;10.918;2022-12-24T01:25:41;71.30;;;35.47;;
42338;SDS011;27993;45.392;10.918;2022-12-24T01:28:12;58.03;;;34.73;;
42338;SDS011;27993;45.392;10.918;2022-12-24T01:30:42;57.40;;;32.60;;
42338;SDS011;27993;45.392;10.918;2022-12-24T01:33:13;74.63;;;34.90;;
42338;SDS011;27993;45.392;10.918;2022-12-24T01:35:44;59.87;;;32.47;;
42338;SDS011;27993;45.392;10.918;2022-12-24T01:38:15;58.07;;;33.73;;
42338;SDS011;27993;45.392;10.918;2022-12-24T01:40:45;62.57;;;34.13;;
42338;SDS011;27993;45.392;10.918;2022-12-24T01:43:34;56.28;;;32.65;;
42338;SDS011;27993;45.392;10.918;2022-12-24T01:46:13;64.67;;;34.50;;
42338;SDS011;27993;45.392;10.918;2022-12-24T01:48:53;71.10;;;37.05;;
42338;SDS011;27993;45.392;10.918;2022-12-24T01:57:13;67.35;;;35.28;;
42338;SDS011;27993;45.392;10.918;2022-12-24T01:59:56;72.32;;;37.35;;
42338;SDS011;27993;45.392;10.918;2022-12-24T02:02:29;71.07;;;37.83;;
42338;SDS011;27993;45.392;10.918;2022-12-24T02:05:04;71.20;;;39.10;;
42338;SDS011;27993;45.392;10.918;2022-12-24T02:07:38;68.68;;;38.53;;
42338;SDS011;27993;45.392;10.918;2022-12-24T02:12:41;64.50;;;34.28;;
42338;SDS011;27993;45.392;10.918;2022-12-24T02:15:13;71.90;;;37.70;;
42338;SDS011;27993;45.392;10.918;2022-12-24T02:17:57;64.20;;;36.47;;
42338;SDS011;27993;45.392;10.918;2022-12-24T02:20:45;67.07;;;35.63;;
42338;SDS011;27993;45.392;10.918;2022-12-24T02:23:54;62.80;;;35.28;;
42338;SDS011;27993;45.392;10.918;2022-12-24T02:32:24;75.10;;;38.35;;
42338;SDS011;27993;45.392;10.918;2022-12-24T02:35:18;70.15;;;39.42;;
42338;SDS011;27993;45.392;10.918;2022-12-24T02:38:13;76.18;;;36.50;;
42338;SDS011;27993;45.392;10.918;2022-12-24T02:41:25;58.13;;;33.60;;
42338;SDS011;27993;45.392;10.918;2022-12-24T02:44:21;61.75;;;31.77;;
42338;SDS011;27993;45.392;10.918;2022-12-24T02:46:56;62.83;;;32.00;;
42338;SDS011;27993;45.392;10.918;2022-12-24T02:49:29;60.30;;;33.05;;
42338;SDS011;27993;45.392;10.918;2022-12-24T02:52:00;59.40;;;32.37;;
42338;SDS011;27993;45.392;10.918;2022-12-24T02:54:30;56.63;;;34.57;;
42338;SDS011;27993;45.392;10.918;2022-12-24T02:57:16;61.50;;;33.88;;
42338;SDS011;27993;45.392;10.918;2022-12-24T03:00:10;58.78;;;31.67;;
42338;SDS011;27993;45.392;10.918;2022-12-24T03:06:37;58.87;;;32.65;;
42338;SDS011;27993;45.392;10.918;2022-12-24T03:08:53;56.05;;;31.67;;
42338;SDS011;27993;45.392;10.918;2022-12-24T03:11:34;67.82;;;35.65;;
42338;SDS011;27993;45.392;10.918;2022-12-24T03:14:07;65.97;;;35.13;;
42338;SDS011;27993;45.392;10.918;2022-12-24T03:16:38;56.25;;;29.95;;
42338;SDS011;27993;45.392;10.918;2022-12-24T03:19:08;51.80;;;29.33;;
42338;SDS011;27993;45.392;10.918;2022-12-24T03:21:39;54.00;;;30.33;;
42338;SDS011;27993;45.392;10.918;2022-12-24T03:26:43;55.72;;;29.52;;
42338;SDS011;27993;45.392;10.918;2022-12-24T03:29:15;60.97;;;31.90;;
42338;SDS011;27993;45.392;10.918;2022-12-24T03:31:48;57.63;;;30.30;;
42338;SDS011;27993;45.392;10.918;2022-12-24T03:34:20;47.58;;;28.55;;
42338;SDS011;27993;45.392;10.918;2022-12-24T03:36:51;54.97;;;31.23;;
42338;SDS011;27993;45.392;10.918;2022-12-24T03:39:21;56.53;;;31.37;;
42338;SDS011;27993;45.392;10.918;2022-12-24T03:41:52;70.37;;;31.10;;
42338;SDS011;27993;45.392;10.918;2022-12-24T03:44:23;56.37;;;31.60;;
42338;SDS011;27993;45.392;10.918;2022-12-24T03:46:53;61.97;;;30.60;;
42338;SDS011;27993;45.392;10.918;2022-12-24T03:49:24;50.70;;;30.80;;
42338;SDS011;27993;45.392;10.918;2022-12-24T03:51:54;49.77;;;29.67;;
42338;SDS011;27993;45.392;10.918;2022-12-24T03:54:25;56.33;;;31.90;;
42338;SDS011;27993;45.392;10.918;2022-12-24T03:56:56;56.30;;;29.67;;
42338;SDS011;27993;45.392;10.918;2022-12-24T03:59:26;52.28;;;31.30;;
42338;SDS011;27993;45.392;10.918;2022-12-24T04:01:57;57.20;;;32.33;;
42338;SDS011;27993;45.392;10.918;2022-12-24T04:04:27;60.05;;;30.12;;
42338;SDS011;27993;45.392;10.918;2022-12-24T04:06:58;67.77;;;30.77;;
42338;SDS011;27993;45.392;10.918;2022-12-24T04:09:29;50.95;;;27.98;;
42338;SDS011;27993;45.392;10.918;2022-12-24T04:12:00;51.97;;;26.80;;
42338;SDS011;27993;45.392;10.918;2022-12-24T04:14:31;48.00;;;26.70;;
42338;SDS011;27993;45.392;10.918;2022-12-24T04:17:02;50.53;;;25.43;;
42338;SDS011;27993;45.392;10.918;2022-12-24T04:19:32;52.30;;;27.17;;
42338;SDS011;27993;45.392;10.918;2022-12-24T04:22:03;41.73;;;24.33;;
42338;SDS011;27993;45.392;10.918;2022-12-24T04:24:34;37.37;;;20.80;;
42338;SDS011;27993;45.392;10.918;2022-12-24T04:27:04;35.43;;;21.13;;
42338;SDS011;27993;45.392;10.918;2022-12-24T04:29:35;30.48;;;18.27;;
42338;SDS011;27993;45.392;10.918;2022-12-24T04:32:06;38.87;;;19.83;;
42338;SDS011;27993;45.392;10.918;2022-12-24T04:34:36;36.20;;;19.20;;
42338;SDS011;27993;45.392;10.918;2022-12-24T04:37:07;34.40;;;18.97;;
42338;SDS011;27993;45.392;10.918;2022-12-24T04:39:38;36.73;;;18.47;;
42338;SDS011;27993;45.392;10.918;2022-12-24T04:42:08;28.93;;;20.47;;
42338;SDS011;27993;45.392;10.918;2022-12-24T04:44:39;54.83;;;21.20;;
42338;SDS011;27993;45.392;10.918;2022-12-24T04:47:09;42.97;;;20.87;;
42338;SDS011;27993;45.392;10.918;2022-12-24T04:49:40;36.97;;;20.50;;
42338;SDS011;27993;45.392;10.918;2022-12-24T04:52:10;32.38;;;19.92;;
42338;SDS011;27993;45.392;10.918;2022-12-24T04:54:41;34.10;;;20.60;;
42338;SDS011;27993;45.392;10.918;2022-12-24T04:57:11;31.30;;;20.63;;
42338;SDS011;27993;45.392;10.918;2022-12-24T04:59:42;36.03;;;20.77;;
42338;SDS011;27993;45.392;10.918;2022-12-24T05:02:13;37.57;;;22.80;;
42338;SDS011;27993;45.392;10.918;2022-12-24T05:04:43;45.40;;;21.80;;
42338;SDS011;27993;45.392;10.918;2022-12-24T05:07:14;40.20;;;20.37;;
42338;SDS011;27993;45.392;10.918;2022-12-24T05:09:44;39.43;;;22.77;;
42338;SDS011;27993;45.392;10.918;2022-12-24T05:12:15;38.47;;;21.40;;
42338;SDS011;27993;45.392;10.918;2022-12-24T05:14:46;36.40;;;19.77;;
42338;SDS011;27993;45.392;10.918;2022-12-24T05:17:16;32.83;;;21.33;;
42338;SDS011;27993;45.392;10.918;2022-12-24T05:19:47;37.70;;;19.00;;
42338;SDS011;27993;45.392;10.918;2022-12-24T05:22:17;33.47;;;20.10;;
42338;SDS011;27993;45.392;10.918;2022-12-24T05:25:08;35.30;;;19.60;;
42338;SDS011;27993;45.392;10.918;2022-12-24T05:27:57;32.83;;;18.42;;
42338;SDS011;27993;45.392;10.918;2022-12-24T05:30:28;33.47;;;18.67;;
42338;SDS011;27993;45.392;10.918;2022-12-24T05:32:58;30.53;;;18.30;;
42338;SDS011;27993;45.392;10.918;2022-12-24T05:35:29;32.40;;;16.75;;
42338;SDS011;27993;45.392;10.918;2022-12-24T05:38:00;44.90;;;17.47;;
42338;SDS011;27993;45.392;10.918;2022-12-24T05:40:30;31.13;;;16.93;;
42338;SDS011;27993;45.392;10.918;2022-12-24T05:43:01;31.00;;;18.98;;
42338;SDS011;27993;45.392;10.918;2022-12-24T05:45:31;33.08;;;17.77;;
42338;SDS011;27993;45.392;10.918;2022-12-24T05:48:02;33.33;;;18.73;;
42338;SDS011;27993;45.392;10.918;2022-12-24T05:50:33;40.10;;;17.77;;
42338;SDS011;27993;45.392;10.918;2022-12-24T05:55:36;32.20;;;16.80;;
42338;SDS011;27993;45.392;10.918;2022-12-24T05:58:06;34.43;;;19.40;;
42338;SDS011;27993;45.392;10.918;2022-12-24T06:00:37;32.40;;;17.83;;
42338;SDS011;27993;45.392;10.918;2022-12-24T06:03:08;27.20;;;17.95;;
42338;SDS011;27993;45.392;10.918;2022-12-24T06:05:38;36.67;;;20.10;;
42338;SDS011;27993;45.392;10.918;2022-12-24T06:08:10;38.03;;;19.08;;
42338;SDS011;27993;45.392;10.918;2022-12-24T06:10:41;36.53;;;19.47;;
42338;SDS011;27993;45.392;10.918;2022-12-24T06:13:11;37.95;;;21.17;;
42338;SDS011;27993;45.392;10.918;2022-12-24T06:15:42;40.63;;;19.90;;
42338;SDS011;27993;45.392;10.918;2022-12-24T06:18:12;32.83;;;19.10;;
42338;SDS011;27993;45.392;10.918;2022-12-24T06:20:43;40.10;;;21.87;;
42338;SDS011;27993;45.392;10.918;2022-12-24T06:23:14;38.03;;;23.17;;
42338;SDS011;27993;45.392;10.918;2022-12-24T06:25:44;47.53;;;21.73;;
42338;SDS011;27993;45.392;10.918;2022-12-24T06:28:16;39.00;;;21.45;;
42338;SDS011;27993;45.392;10.918;2022-12-24T06:30:47;37.70;;;19.33;;
42338;SDS011;27993;45.392;10.918;2022-12-24T06:33:19;41.00;;;23.50;;
42338;SDS011;27993;45.392;10.918;2022-12-24T06:35:49;40.50;;;21.80;;
42338;SDS011;27993;45.392;10.918;2022-12-24T06:38:20;49.10;;;22.87;;
42338;SDS011;27993;45.392;10.918;2022-12-24T06:40:51;50.58;;;24.33;;
42338;SDS011;27993;45.392;10.918;2022-12-24T06:43:21;42.87;;;22.93;;
42338;SDS011;27993;45.392;10.918;2022-12-24T06:45:52;44.73;;;23.17;;
42338;SDS011;27993;45.392;10.918;2022-12-24T06:48:22;49.10;;;23.20;;
42338;SDS011;27993;45.392;10.918;2022-12-24T06:50:53;36.63;;;21.80;;
42338;SDS011;27993;45.392;10.918;2022-12-24T06:53:24;49.83;;;21.50;;
42338;SDS011;27993;45.392;10.918;2022-12-24T06:56:08;49.83;;;22.67;;
42338;SDS011;27993;45.392;10.918;2022-12-24T06:58:40;38.22;;;22.37;;
42338;SDS011;27993;45.392;10.918;2022-12-24T07:01:12;55.00;;;23.13;;
42338;SDS011;27993;45.392;10.918;2022-12-24T07:03:44;49.42;;;24.73;;
42338;SDS011;27993;45.392;10.918;2022-12-24T07:06:25;45.72;;;23.80;;
42338;SDS011;27993;45.392;10.918;2022-12-24T07:08:57;40.35;;;23.87;;
42338;SDS011;27993;45.392;10.918;2022-12-24T07:11:28;52.87;;;25.97;;
42338;SDS011;27993;45.392;10.918;2022-12-24T07:13:59;40.55;;;22.98;;
42338;SDS011;27993;45.392;10.918;2022-12-24T07:16:29;42.03;;;22.73;;
42338;SDS011;27993;45.392;10.918;2022-12-24T07:19:00;42.23;;;23.43;;
42338;SDS011;27993;45.392;10.918;2022-12-24T07:21:30;41.57;;;21.43;;
42338;SDS011;27993;45.392;10.918;2022-12-24T07:24:01;35.97;;;21.92;;
42338;SDS011;27993;45.392;10.918;2022-12-24T07:26:32;49.07;;;23.73;;
42338;SDS011;27993;45.392;10.918;2022-12-24T07:29:03;46.33;;;24.52;;
42338;SDS011;27993;45.392;10.918;2022-12-24T07:31:34;46.27;;;25.40;;
42338;SDS011;27993;45.392;10.918;2022-12-24T07:34:04;44.47;;;24.07;;
42338;SDS011;27993;45.392;10.918;2022-12-24T07:36:35;46.57;;;26.97;;
42338;SDS011;27993;45.392;10.918;2022-12-24T07:39:06;53.33;;;27.10;;
42338;SDS011;27993;45.392;10.918;2022-12-24T07:41:36;51.10;;;27.83;;
42338;SDS011;27993;45.392;10.918;2022-12-24T07:44:09;52.87;;;28.00;;
42338;SDS011;27993;45.392;10.918;2022-12-24T07:46:42;55.28;;;26.65;;
42338;SDS011;27993;45.392;10.918;2022-12-24T07:49:13;63.33;;;30.57;;
42338;SDS011;27993;45.392;10.918;2022-12-24T07:51:43;55.17;;;29.40;;
42338;SDS011;27993;45.392;10.918;2022-12-24T07:54:14;51.63;;;28.83;;
42338;SDS011;27993;45.392;10.918;2022-12-24T07:56:45;51.05;;;28.70;;
42338;SDS011;27993;45.392;10.918;2022-12-24T07:59:15;58.87;;;28.43;;
42338;SDS011;27993;45.392;10.918;2022-12-24T08:01:46;48.73;;;28.03;;
42338;SDS011;27993;45.392;10.918;2022-12-24T08:04:16;49.67;;;29.03;;
42338;SDS011;27993;45.392;10.918;2022-12-24T08:06:47;51.20;;;29.50;;
42338;SDS011;27993;45.392;10.918;2022-12-24T08:09:17;57.70;;;29.08;;
42338;SDS011;27993;45.392;10.918;2022-12-24T08:11:48;50.23;;;28.33;;
42338;SDS011;27993;45.392;10.918;2022-12-24T08:14:22;48.53;;;26.10;;
42338;SDS011;27993;45.392;10.918;2022-12-24T08:16:52;56.03;;;26.80;;
42338;SDS011;27993;45.392;10.918;2022-12-24T08:19:23;53.30;;;28.23;;
42338;SDS011;27993;45.392;10.918;2022-12-24T08:21:54;51.55;;;29.52;;
42338;SDS011;27993;45.392;10.918;2022-12-24T08:24:24;59.17;;;30.00;;
42338;SDS011;27993;45.392;10.918;2022-12-24T08:26:55;64.27;;;32.40;;
42338;SDS011;27993;45.392;10.918;2022-12-24T08:29:25;51.75;;;29.85;;
42338;SDS011;27993;45.392;10.918;2022-12-24T08:31:57;50.08;;;29.00;;
42338;SDS011;27993;45.392;10.918;2022-12-24T08:34:28;53.42;;;29.52;;
42338;SDS011;27993;45.392;10.918;2022-12-24T08:36:58;52.50;;;27.67;;
42338;SDS011;27993;45.392;10.918;2022-12-24T08:39:29;47.92;;;28.30;;
42338;SDS011;27993;45.392;10.918;2022-12-24T08:41:59;52.93;;;26.73;;
42338;SDS011;27993;45.392;10.918;2022-12-24T08:44:30;55.83;;;28.97;;
42338;SDS011;27993;45.392;10.918;2022-12-24T08:47:00;45.63;;;24.03;;
42338;SDS011;27993;45.392;10.918;2022-12-24T08:49:31;50.63;;;29.03;;
42338;SDS011;27993;45.392;10.918;2022-12-24T08:52:02;50.93;;;27.43;;
42338;SDS011;27993;45.392;10.918;2022-12-24T08:54:32;47.90;;;26.60;;
42338;SDS011;27993;45.392;10.918;2022-12-24T08:57:03;50.07;;;27.43;;
42338;SDS011;27993;45.392;10.918;2022-12-24T08:59:34;48.50;;;26.63;;
42338;SDS011;27993;45.392;10.918;2022-12-24T09:02:04;48.07;;;25.50;;
42338;SDS011;27993;45.392;10.918;2022-12-24T09:04:36;46.53;;;26.97;;
42338;SDS011;27993;45.392;10.918;2022-12-24T09:07:09;55.88;;;30.23;;
42338;SDS011;27993;45.392;10.918;2022-12-24T09:09:40;60.42;;;31.05;;
42338;SDS011;27993;45.392;10.918;2022-12-24T09:12:10;57.87;;;29.13;;
42338;SDS011;27993;45.392;10.918;2022-12-24T09:14:41;61.63;;;28.60;;
42338;SDS011;27993;45.392;10.918;2022-12-24T09:17:11;57.47;;;29.60;;
42338;SDS011;27993;45.392;10.918;2022-12-24T09:19:42;56.53;;;29.03;;
42338;SDS011;27993;45.392;10.918;2022-12-24T09:22:13;49.67;;;27.47;;
42338;SDS011;27993;45.392;10.918;2022-12-24T09:24:43;52.97;;;28.50;;
42338;SDS011;27993;45.392;10.918;2022-12-24T09:27:14;62.20;;;32.20;;
42338;SDS011;27993;45.392;10.918;2022-12-24T09:29:45;58.77;;;33.60;;
42338;SDS011;27993;45.392;10.918;2022-12-24T09:32:15;65.27;;;34.37;;
42338;SDS011;27993;45.392;10.918;2022-12-24T09:34:46;65.97;;;31.50;;
42338;SDS011;27993;45.392;10.918;2022-12-24T09:37:17;58.77;;;30.53;;
42338;SDS011;27993;45.392;10.918;2022-12-24T09:39:48;56.73;;;30.93;;
42338;SDS011;27993;45.392;10.918;2022-12-24T09:45:18;64.43;;;32.97;;
42338;SDS011;27993;45.392;10.918;2022-12-24T09:48:00;58.22;;;31.50;;
42338;SDS011;27993;45.392;10.918;2022-12-24T09:50:39;62.75;;;30.73;;
42338;SDS011;27993;45.392;10.918;2022-12-24T09:53:20;53.65;;;30.50;;
42338;SDS011;27993;45.392;10.918;2022-12-24T09:55:53;59.97;;;31.85;;
42338;SDS011;27993;45.392;10.918;2022-12-24T09:58:37;59.17;;;32.58;;
42338;SDS011;27993;45.392;10.918;2022-12-24T10:01:19;61.45;;;32.30;;
42338;SDS011;27993;45.392;10.918;2022-12-24T10:03:50;62.13;;;33.90;;
42338;SDS011;27993;45.392;10.918;2022-12-24T10:06:23;69.57;;;34.50;;
42338;SDS011;27993;45.392;10.918;2022-12-24T10:12:00;61.53;;;33.05;;
42338;SDS011;27993;45.392;10.918;2022-12-24T10:23:32;93.07;;;44.63;;
42338;SDS011;27993;45.392;10.918;2022-12-24T10:29:14;109.57;;;48.87;;
42338;SDS011;27993;45.392;10.918;2022-12-24T10:34:59;104.78;;;50.97;;
42338;SDS011;27993;45.392;10.918;2022-12-24T10:37:53;101.75;;;45.58;;
42338;SDS011;27993;45.392;10.918;2022-12-24T10:40:34;113.78;;;51.05;;
42338;SDS011;27993;45.392;10.918;2022-12-24T10:43:13;98.80;;;49.83;;
42338;SDS011;27993;45.392;10.918;2022-12-24T10:45:51;106.05;;;51.47;;
42338;SDS011;27993;45.392;10.918;2022-12-24T10:48:26;96.78;;;49.63;;
42338;SDS011;27993;45.392;10.918;2022-12-24T10:51:05;107.78;;;51.90;;
42338;SDS011;27993;45.392;10.918;2022-12-24T10:56:20;119.95;;;50.78;;
42338;SDS011;27993;45.392;10.918;2022-12-24T10:58:52;112.53;;;52.93;;
42338;SDS011;27993;45.392;10.918;2022-12-24T11:01:46;111.53;;;53.60;;
42338;SDS011;27993;45.392;10.918;2022-12-24T11:04:19;130.00;;;53.78;;
42338;SDS011;27993;45.392;10.918;2022-12-24T11:14:58;107.18;;;45.78;;
42338;SDS011;27993;45.392;10.918;2022-12-24T11:20:02;88.95;;;44.17;;
42338;SDS011;27993;45.392;10.918;2022-12-24T11:22:33;96.85;;;48.47;;
42338;SDS011;27993;45.392;10.918;2022-12-24T11:25:16;98.90;;;45.67;;
42338;SDS011;27993;45.392;10.918;2022-12-24T11:27:54;90.97;;;46.75;;
42338;SDS011;27993;45.392;10.918;2022-12-24T11:35:32;91.55;;;44.78;;
42338;SDS011;27993;45.392;10.918;2022-12-24T11:38:14;101.60;;;45.00;;
42338;SDS011;27993;45.392;10.918;2022-12-24T11:40:49;99.13;;;45.05;;
42338;SDS011;27993;45.392;10.918;2022-12-24T11:43:36;85.32;;;44.28;;
42338;SDS011;27993;45.392;10.918;2022-12-24T11:46:16;94.05;;;44.05;;
42338;SDS011;27993;45.392;10.918;2022-12-24T11:48:47;90.10;;;45.80;;
42338;SDS011;27993;45.392;10.918;2022-12-24T11:51:22;70.75;;;38.67;;
42338;SDS011;27993;45.392;10.918;2022-12-24T11:53:57;80.87;;;42.28;;
42338;SDS011;27993;45.392;10.918;2022-12-24T11:56:36;87.40;;;41.25;;
42338;SDS011;27993;45.392;10.918;2022-12-24T12:02:02;99.50;;;42.27;;
42338;SDS011;27993;45.392;10.918;2022-12-24T12:04:50;91.40;;;41.65;;
42338;SDS011;27993;45.392;10.918;2022-12-24T12:07:29;94.60;;;44.45;;
42338;SDS011;27993;45.392;10.918;2022-12-24T12:12:40;109.00;;;45.90;;
42338;SDS011;27993;45.392;10.918;2022-12-24T12:15:15;93.28;;;46.22;;
42338;SDS011;27993;45.392;10.918;2022-12-24T12:17:53;90.12;;;45.15;;
42338;SDS011;27993;45.392;10.918;2022-12-24T12:20:29;100.18;;;45.83;;
42338;SDS011;27993;45.392;10.918;2022-12-24T12:28:38;103.87;;;49.38;;
42338;SDS011;27993;45.392;10.918;2022-12-24T12:36:45;100.32;;;48.38;;
42338;SDS011;27993;45.392;10.918;2022-12-24T12:39:16;88.20;;;43.13;;
42338;SDS011;27993;45.392;10.918;2022-12-24T12:50:10;111.88;;;46.67;;
42338;SDS011;27993;45.392;10.918;2022-12-24T13:20:45;107.32;;;44.90;;
42338;SDS011;27993;45.392;10.918;2022-12-24T13:23:22;92.88;;;43.05;;
42338;SDS011;27993;45.392;10.918;2022-12-24T13:25:55;92.88;;;45.20;;
42338;SDS011;27993;45.392;10.918;2022-12-24T13:28:31;79.40;;;43.10;;
42338;SDS011;27993;45.392;10.918;2022-12-24T13:33:47;76.43;;;40.78;;
42338;SDS011;27993;45.392;10.918;2022-12-24T13:36:19;84.72;;;46.13;;
42338;SDS011;27993;45.392;10.918;2022-12-24T13:44:21;67.22;;;38.15;;
42338;SDS011;27993;45.392;10.918;2022-12-24T13:47:00;75.68;;;38.50;;
42338;SDS011;27993;45.392;10.918;2022-12-24T13:49:35;79.85;;;40.00;;
42338;SDS011;27993;45.392;10.918;2022-12-24T13:54:40;72.50;;;39.45;;
42338;SDS011;27993;45.392;10.918;2022-12-24T14:00:06;70.87;;;38.78;;
42338;SDS011;27993;45.392;10.918;2022-12-24T14:11:12;67.87;;;37.67;;
42338;SDS011;27993;45.392;10.918;2022-12-24T14:21:28;80.75;;;38.40;;
42338;SDS011;27993;45.392;10.918;2022-12-24T14:24:11;90.75;;;41.40;;
42338;SDS011;27993;45.392;10.918;2022-12-24T14:26:58;84.28;;;40.40;;
42338;SDS011;27993;45.392;10.918;2022-12-24T14:29:52;87.68;;;39.83;;
42338;SDS011;27993;45.392;10.918;2022-12-24T14:32:34;96.05;;;41.90;;
42338;SDS011;27993;45.392;10.918;2022-12-24T14:35:07;92.25;;;44.13;;
42338;SDS011;27993;45.392;10.918;2022-12-24T14:37:44;86.18;;;41.15;;
42338;SDS011;27993;45.392;10.918;2022-12-24T14:40:21;94.47;;;43.67;;
42338;SDS011;27993;45.392;10.918;2022-12-24T14:45:50;94.95;;;43.45;;
42338;SDS011;27993;45.392;10.918;2022-12-24T14:52:12;88.20;;;43.97;;
42338;SDS011;27993;45.392;10.918;2022-12-24T14:54:53;92.97;;;45.00;;
42338;SDS011;27993;45.392;10.918;2022-12-24T14:57:24;111.03;;;48.77;;
42338;SDS011;27993;45.392;10.918;2022-12-24T15:05:19;110.60;;;47.10;;
42338;SDS011;27993;45.392;10.918;2022-12-24T15:08:01;107.72;;;48.67;;
42338;SDS011;27993;45.392;10.918;2022-12-24T15:10:38;99.90;;;48.28;;
42338;SDS011;27993;45.392;10.918;2022-12-24T15:15:56;94.35;;;45.97;;
42338;SDS011;27993;45.392;10.918;2022-12-24T15:18:28;97.67;;;46.60;;
42338;SDS011;27993;45.392;10.918;2022-12-24T15:21:01;100.68;;;48.75;;
42338;SDS011;27993;45.392;10.918;2022-12-24T15:23:35;98.20;;;47.78;;
42338;SDS011;27993;45.392;10.918;2022-12-24T15:28:45;95.22;;;45.95;;
42338;SDS011;27993;45.392;10.918;2022-12-24T15:31:16;102.60;;;48.60;;
42338;SDS011;27993;45.392;10.918;2022-12-24T15:33:53;101.10;;;49.15;;
42338;SDS011;27993;45.392;10.918;2022-12-24T15:36:33;105.55;;;49.53;;
42338;SDS011;27993;45.392;10.918;2022-12-24T15:39:07;118.68;;;49.40;;
42338;SDS011;27993;45.392;10.918;2022-12-24T15:41:45;93.37;;;48.65;;
42338;SDS011;27993;45.392;10.918;2022-12-24T15:44:37;108.70;;;49.75;;
42338;SDS011;27993;45.392;10.918;2022-12-24T15:47:36;94.13;;;45.88;;
42338;SDS011;27993;45.392;10.918;2022-12-24T15:50:15;102.10;;;45.15;;
42338;SDS011;27993;45.392;10.918;2022-12-24T15:52:48;88.45;;;45.42;;
42338;SDS011;27993;45.392;10.918;2022-12-24T15:55:23;103.25;;;49.53;;
42338;SDS011;27993;45.392;10.918;2022-12-24T15:57:55;99.68;;;50.83;;
42338;SDS011;27993;45.392;10.918;2022-12-24T16:00:26;108.53;;;52.57;;
42338;SDS011;27993;45.392;10.918;2022-12-24T16:03:18;96.68;;;47.83;;
42338;SDS011;27993;45.392;10.918;2022-12-24T16:08:52;88.35;;;47.28;;
42338;SDS011;27993;45.392;10.918;2022-12-24T16:11:25;122.68;;;59.20;;
42338;SDS011;27993;45.392;10.918;2022-12-24T16:16:45;116.72;;;57.42;;
42338;SDS011;27993;45.392;10.918;2022-12-24T16:19:21;121.45;;;55.67;;
42338;SDS011;27993;45.392;10.918;2022-12-24T16:22:00;118.43;;;61.42;;
42338;SDS011;27993;45.392;10.918;2022-12-24T16:24:52;118.53;;;56.95;;
42338;SDS011;27993;45.392;10.918;2022-12-24T16:27:24;106.30;;;53.95;;
42338;SDS011;27993;45.392;10.918;2022-12-24T16:29:55;105.05;;;52.42;;
42338;SDS011;27993;45.392;10.918;2022-12-24T16:32:31;114.50;;;54.55;;
42338;SDS011;27993;45.392;10.918;2022-12-24T16:35:04;107.40;;;49.85;;
42338;SDS011;27993;45.392;10.918;2022-12-24T16:37:36;102.53;;;52.55;;
42338;SDS011;27993;45.392;10.918;2022-12-24T16:40:12;89.53;;;49.03;;
42338;SDS011;27993;45.392;10.918;2022-12-24T16:42:43;107.22;;;51.08;;
42338;SDS011;27993;45.392;10.918;2022-12-24T16:45:33;99.97;;;47.80;;
42338;SDS011;27993;45.392;10.918;2022-12-24T16:48:05;112.25;;;46.78;;
42338;SDS011;27993;45.392;10.918;2022-12-24T16:53:08;105.10;;;46.88;;
42338;SDS011;27993;45.392;10.918;2022-12-24T16:55:42;105.50;;;48.87;;
42338;SDS011;27993;45.392;10.918;2022-12-24T16:58:13;107.12;;;47.75;;
42338;SDS011;27993;45.392;10.918;2022-12-24T17:03:15;92.05;;;44.40;;
42338;SDS011;27993;45.392;10.918;2022-12-24T17:05:46;100.80;;;45.08;;
42338;SDS011;27993;45.392;10.918;2022-12-24T17:08:16;93.23;;;47.97;;
42338;SDS011;27993;45.392;10.918;2022-12-24T17:10:50;100.10;;;48.90;;
42338;SDS011;27993;45.392;10.918;2022-12-24T17:13:21;108.12;;;52.20;;
42338;SDS011;27993;45.392;10.918;2022-12-24T17:15:52;107.63;;;52.83;;
42338;SDS011;27993;45.392;10.918;2022-12-24T17:18:22;99.63;;;50.80;;
42338;SDS011;27993;45.392;10.918;2022-12-24T17:20:59;107.60;;;50.27;;
42338;SDS011;27993;45.392;10.918;2022-12-24T17:23:32;100.57;;;46.53;;
42338;SDS011;27993;45.392;10.918;2022-12-24T17:26:03;120.27;;;59.23;;
42338;SDS011;27993;45.392;10.918;2022-12-24T17:28:33;114.47;;;57.47;;
42338;SDS011;27993;45.392;10.918;2022-12-24T17:31:08;114.73;;;53.87;;
42338;SDS011;27993;45.392;10.918;2022-12-24T17:33:39;106.63;;;49.53;;
42338;SDS011;27993;45.392;10.918;2022-12-24T17:36:10;97.53;;;49.63;;